createdAt,value
2018-11-29T00:01:55.918Z,8.30
2018-11-29T00:04:24.053Z,8.30
2018-11-29T00:06:52.181Z,8.40
2018-11-29T00:09:20.311Z,8.40
2018-11-29T00:11:48.439Z,8.40
2018-11-29T00:14:16.604Z,8.50
2018-11-29T00:16:44.732Z,8.50
2018-11-29T00:19:12.864Z,8.50
2018-11-29T00:21:40.997Z,8.50
2018-11-29T00:24:09.144Z,8.60
2018-11-29T00:26:37.264Z,8.60
2018-11-29T00:29:05.583Z,8.60
2018-11-29T00:31:33.712Z,8.60
2018-11-29T00:34:01.832Z,8.60
2018-11-29T00:36:29.970Z,8.60
2018-11-29T00:38:58.113Z,8.70
2018-11-29T00:41:26.243Z,8.70
2018-11-29T00:43:54.372Z,8.70
2018-11-29T00:46:22.505Z,8.80
2018-11-29T00:48:50.656Z,8.80
2018-11-29T00:51:18.923Z,8.80
2018-11-29T00:53:47.059Z,8.80
2018-11-29T00:56:15.209Z,8.80
2018-11-29T00:58:43.353Z,8.80
2018-11-29T01:01:11.509Z,8.90
2018-11-29T01:03:39.643Z,8.90
2018-11-29T01:06:07.816Z,9.00
2018-11-29T01:08:35.952Z,9.00
2018-11-29T01:11:04.104Z,9.00
2018-11-29T01:13:32.244Z,9.00
2018-11-29T01:16:00.396Z,9.00
2018-11-29T01:18:28.519Z,9.00
2018-11-29T01:20:56.672Z,9.10
2018-11-29T01:23:24.816Z,9.10
2018-11-29T01:25:53.284Z,9.10
2018-11-29T01:28:21.424Z,9.10
2018-11-29T01:30:49.572Z,9.20
2018-11-29T01:33:17.727Z,9.20
2018-11-29T01:35:45.885Z,9.20
2018-11-29T01:38:14.017Z,9.10
2018-11-29T01:40:42.168Z,9.20
2018-11-29T01:43:10.300Z,9.20
2018-11-29T01:45:38.448Z,9.30
2018-11-29T01:48:06.627Z,9.20
2018-11-29T01:50:34.892Z,9.30
2018-11-29T01:53:03.036Z,9.30
2018-11-29T01:55:31.186Z,9.40
2018-11-29T01:57:59.328Z,9.40
2018-11-29T02:00:27.480Z,9.40
2018-11-29T02:02:55.683Z,9.40
2018-11-29T02:05:23.772Z,9.50
2018-11-29T02:07:51.912Z,9.50
2018-11-29T02:10:25.300Z,9.50
2018-11-29T02:12:53.640Z,9.50
2018-11-29T02:15:21.804Z,9.50
2018-11-29T02:17:49.941Z,9.50
2018-11-29T02:20:18.909Z,9.50
2018-11-29T02:22:47.386Z,9.60
2018-11-29T02:25:15.530Z,9.60
2018-11-29T02:27:43.712Z,9.60
2018-11-29T02:30:14.274Z,9.60
2018-11-29T02:32:42.429Z,9.60
2018-11-29T02:35:10.573Z,9.60
2018-11-29T02:37:38.724Z,9.60
2018-11-29T02:40:14.643Z,9.70
2018-11-29T02:42:43.144Z,9.70
2018-11-29T02:45:12.548Z,9.60
2018-11-29T02:47:40.718Z,9.60
2018-11-29T02:50:09.703Z,9.70
2018-11-29T02:52:37.866Z,9.70
2018-11-29T02:55:07.293Z,9.60
2018-11-29T02:57:35.780Z,9.60
2018-11-29T03:00:04.457Z,9.60
2018-11-29T03:02:32.588Z,9.60
2018-11-29T03:05:00.707Z,9.60
2018-11-29T03:07:28.853Z,9.70
2018-11-29T03:09:56.985Z,9.60
2018-11-29T03:12:25.132Z,9.70
2018-11-29T03:14:53.252Z,9.70
2018-11-29T03:17:21.393Z,9.70
2018-11-29T03:19:49.512Z,9.70
2018-11-29T03:22:17.648Z,9.80
2018-11-29T03:24:45.771Z,9.80
2018-11-29T03:27:13.932Z,9.70
2018-11-29T03:29:42.083Z,9.70
2018-11-29T03:32:10.252Z,9.70
2018-11-29T03:34:39.004Z,9.70
2018-11-29T03:37:07.588Z,9.70
2018-11-29T03:39:35.773Z,9.70
2018-11-29T03:42:03.913Z,9.80
2018-11-29T03:44:32.028Z,9.70
2018-11-29T03:47:00.197Z,9.70
2018-11-29T03:49:28.418Z,9.80
2018-11-29T03:51:56.541Z,9.80
2018-11-29T03:54:24.673Z,9.80
2018-11-29T03:56:52.801Z,9.80
2018-11-29T03:59:20.932Z,9.80
2018-11-29T04:01:49.165Z,9.80
2018-11-29T04:04:17.292Z,9.80
2018-11-29T04:06:45.476Z,9.80
2018-11-29T04:09:13.596Z,9.80
2018-11-29T04:11:41.712Z,9.80
2018-11-29T04:14:09.815Z,9.80
2018-11-29T04:16:37.940Z,9.80
2018-11-29T04:19:06.192Z,9.70
2018-11-29T04:21:34.295Z,9.70
2018-11-29T04:24:02.416Z,9.80
2018-11-29T04:26:30.519Z,9.70
2018-11-29T04:28:58.636Z,9.70
2018-11-29T04:31:26.741Z,9.80
2018-11-29T04:33:54.860Z,9.70
2018-11-29T04:36:22.960Z,9.70
2018-11-29T04:38:51.092Z,9.70
2018-11-29T04:41:19.192Z,9.70
2018-11-29T04:43:47.312Z,9.70
2018-11-29T04:46:50.428Z,9.70
2018-11-29T04:49:18.568Z,9.70
2018-11-29T04:51:46.697Z,9.70
2018-11-29T04:54:14.832Z,9.70
2018-11-29T04:56:42.946Z,9.70
2018-11-29T04:59:11.088Z,9.70
2018-11-29T05:01:39.240Z,9.70
2018-11-29T05:04:07.499Z,9.70
2018-11-29T05:06:35.624Z,9.70
2018-11-29T05:09:05.123Z,9.80
2018-11-29T05:11:33.243Z,9.80
2018-11-29T05:14:01.382Z,9.80
2018-11-29T05:16:29.508Z,9.80
2018-11-29T05:18:57.645Z,9.80
2018-11-29T05:21:25.764Z,9.80
2018-11-29T05:23:53.897Z,9.80
2018-11-29T05:26:22.020Z,9.80
2018-11-29T05:28:50.153Z,9.80
2018-11-29T05:31:18.340Z,9.90
2018-11-29T05:33:46.500Z,9.80
2018-11-29T05:36:14.625Z,9.90
2018-11-29T05:38:42.772Z,9.90
2018-11-29T05:41:10.904Z,9.80
2018-11-29T05:43:39.044Z,9.80
2018-11-29T05:46:07.165Z,9.80
2018-11-29T05:48:35.348Z,9.70
2018-11-29T05:51:03.477Z,9.70
2018-11-29T05:53:31.597Z,9.70
2018-11-29T05:55:59.709Z,9.70
2018-11-29T05:58:27.825Z,9.70
2018-11-29T06:00:55.932Z,9.60
2018-11-29T06:03:24.050Z,9.60
2018-11-29T06:05:52.168Z,9.50
2018-11-29T06:08:20.309Z,9.60
2018-11-29T06:10:48.435Z,9.50
2018-11-29T06:13:16.558Z,9.50
2018-11-29T06:15:44.684Z,9.50
2018-11-29T06:18:12.832Z,9.50
2018-11-29T06:20:41.031Z,9.40
2018-11-29T06:23:09.159Z,9.40
2018-11-29T06:25:37.306Z,9.50
2018-11-29T06:28:05.432Z,9.40
2018-11-29T06:30:33.862Z,9.40
2018-11-29T06:33:01.997Z,9.30
2018-11-29T06:35:30.128Z,9.30
2018-11-29T06:37:58.253Z,9.30
2018-11-29T06:40:26.393Z,9.30
2018-11-29T06:42:54.525Z,9.30
2018-11-29T06:45:22.660Z,9.20
2018-11-29T06:47:51.719Z,9.20
2018-11-29T06:50:19.873Z,9.20
2018-11-29T06:52:49.188Z,9.20
2018-11-29T06:55:24.648Z,9.20
2018-11-29T06:57:53.321Z,9.20
2018-11-29T07:00:25.636Z,9.20
2018-11-29T07:02:53.797Z,9.20
2018-11-29T07:05:21.936Z,9.20
2018-11-29T07:07:50.088Z,9.20
2018-11-29T07:10:22.659Z,9.20
2018-11-29T07:12:50.948Z,9.20
2018-11-29T07:15:19.099Z,9.30
2018-11-29T07:17:47.220Z,9.30
2018-11-29T07:20:16.245Z,9.30
2018-11-29T07:22:44.929Z,9.30
2018-11-29T07:25:13.069Z,9.30
2018-11-29T07:27:41.190Z,9.30
2018-11-29T07:30:14.181Z,9.30
2018-11-29T07:32:42.302Z,9.20
2018-11-29T07:35:11.448Z,9.20
2018-11-29T07:37:39.924Z,9.20
2018-11-29T07:40:10.568Z,9.20
2018-11-29T07:42:38.704Z,9.20
2018-11-29T07:45:13.032Z,9.30
2018-11-29T07:47:41.195Z,9.20
2018-11-29T07:50:11.568Z,9.20
2018-11-29T07:52:39.808Z,9.20
2018-11-29T07:55:10.792Z,9.20
2018-11-29T07:57:38.925Z,9.20
2018-11-29T08:00:15.629Z,9.30
2018-11-29T08:02:43.740Z,9.30
2018-11-29T08:05:12.820Z,9.30
2018-11-29T08:07:47.345Z,9.40
2018-11-29T08:10:11.633Z,9.40
2018-11-29T08:12:39.760Z,9.40
2018-11-29T08:15:09.208Z,9.50
2018-11-29T08:17:37.352Z,9.50
2018-11-29T08:20:10.788Z,9.50
2018-11-29T08:22:39.169Z,9.50
2018-11-29T08:25:07.979Z,9.50
2018-11-29T08:27:36.107Z,9.50
2018-11-29T08:30:06.156Z,9.60
2018-11-29T08:32:34.296Z,9.60
2018-11-29T08:35:02.440Z,9.60
2018-11-29T08:37:30.594Z,9.60
2018-11-29T08:39:58.729Z,9.70
2018-11-29T08:42:26.856Z,9.70
2018-11-29T08:44:54.996Z,9.70
2018-11-29T08:47:23.117Z,9.70
2018-11-29T08:49:51.239Z,9.70
2018-11-29T08:52:19.357Z,9.80
2018-11-29T08:54:47.488Z,9.70
2018-11-29T08:57:15.678Z,9.80
2018-11-29T08:59:43.754Z,9.80
2018-11-29T09:02:11.860Z,9.80
2018-11-29T09:04:39.976Z,9.80
2018-11-29T09:07:08.088Z,9.80
2018-11-29T09:09:36.211Z,9.80
2018-11-29T09:12:04.344Z,9.90
2018-11-29T09:14:32.452Z,9.90
2018-11-29T09:17:00.576Z,9.90
2018-11-29T09:19:28.695Z,9.90
2018-11-29T09:21:56.840Z,10.00
2018-11-29T09:24:24.964Z,10.10
2018-11-29T09:26:53.083Z,10.00
2018-11-29T09:29:21.204Z,10.00
2018-11-29T09:31:49.330Z,10.00
2018-11-29T09:34:17.444Z,10.00
2018-11-29T09:36:45.569Z,10.10
2018-11-29T09:39:13.700Z,10.10
2018-11-29T09:41:41.824Z,10.10
2018-11-29T09:44:09.940Z,10.20
2018-11-29T09:46:38.081Z,10.20
2018-11-29T09:49:06.228Z,10.20
2018-11-29T09:51:34.420Z,10.30
2018-11-29T09:54:02.552Z,10.30
2018-11-29T09:56:30.700Z,10.40
2018-11-29T09:58:58.968Z,10.40
2018-11-29T10:01:27.121Z,10.40
2018-11-29T10:03:55.258Z,10.50
2018-11-29T10:06:23.403Z,10.50
2018-11-29T10:08:51.532Z,10.60
2018-11-29T10:11:19.689Z,10.60
2018-11-29T10:13:47.830Z,10.60
2018-11-29T10:16:15.971Z,10.70
2018-11-29T10:18:45.048Z,10.70
2018-11-29T10:21:13.218Z,10.70
2018-11-29T10:23:41.340Z,10.70
2018-11-29T10:26:09.496Z,10.80
2018-11-29T10:28:37.620Z,10.90
2018-11-29T10:31:06.669Z,10.90
2018-11-29T10:33:34.817Z,10.90
2018-11-29T10:36:02.960Z,10.90
2018-11-29T10:38:31.112Z,10.90
2018-11-29T10:40:59.256Z,10.90
2018-11-29T10:43:27.392Z,10.90
2018-11-29T10:45:55.549Z,10.90
2018-11-29T10:48:24.423Z,10.90
2018-11-29T10:50:52.548Z,11.00
2018-11-29T10:53:20.700Z,11.00
2018-11-29T10:55:48.823Z,11.00
2018-11-29T10:58:16.969Z,11.00
2018-11-29T11:00:50.441Z,11.00
2018-11-29T11:03:20.383Z,11.00
2018-11-29T11:05:49.741Z,11.00
2018-11-29T11:08:17.951Z,11.00
2018-11-29T11:10:46.173Z,11.00
2018-11-29T11:13:14.309Z,11.00
2018-11-29T11:15:42.424Z,10.90
2018-11-29T11:18:11.572Z,10.90
2018-11-29T11:20:39.727Z,10.90
2018-11-29T11:23:07.945Z,10.90
2018-11-29T11:25:35.999Z,10.90
2018-11-29T11:28:05.397Z,10.90
2018-11-29T11:30:33.524Z,10.90
2018-11-29T11:33:01.742Z,10.90
2018-11-29T11:35:30.523Z,10.90
2018-11-29T11:37:58.627Z,11.00
2018-11-29T11:40:26.756Z,11.00
2018-11-29T11:42:54.903Z,11.00
2018-11-29T11:45:23.050Z,11.00
2018-11-29T11:47:51.185Z,11.00
2018-11-29T11:50:21.350Z,11.10
2018-11-29T11:52:49.730Z,11.00
2018-11-29T11:55:19.193Z,10.90
2018-11-29T11:57:46.716Z,10.90
2018-11-29T12:00:18.069Z,10.90
2018-11-29T12:02:46.966Z,10.90
2018-11-29T12:05:15.032Z,10.90
2018-11-29T12:07:43.153Z,10.90
2018-11-29T12:10:13.438Z,10.90
2018-11-29T12:12:41.565Z,10.90
2018-11-29T12:15:12.842Z,10.90
2018-11-29T12:17:41.739Z,10.80
2018-11-29T12:20:12.157Z,10.70
2018-11-29T12:22:40.499Z,10.70
2018-11-29T12:25:10.152Z,10.60
2018-11-29T12:27:38.286Z,10.70
2018-11-29T12:30:15.819Z,10.60
2018-11-29T12:32:44.044Z,10.50
2018-11-29T12:35:12.161Z,10.50
2018-11-29T12:37:40.280Z,10.50
2018-11-29T12:40:10.070Z,10.40
2018-11-29T12:42:38.196Z,10.40
2018-11-29T12:45:09.178Z,10.40
2018-11-29T12:47:37.359Z,10.40
2018-11-29T12:50:10.760Z,10.40
2018-11-29T12:52:38.896Z,10.40
2018-11-29T12:55:08.049Z,10.40
2018-11-29T12:57:36.185Z,10.50
2018-11-29T13:00:07.067Z,10.50
2018-11-29T13:02:35.200Z,10.50
2018-11-29T13:05:03.545Z,10.60
2018-11-29T13:07:31.677Z,10.60
2018-11-29T13:09:59.816Z,10.60
2018-11-29T13:12:27.952Z,10.60
2018-11-29T13:14:56.096Z,10.60
2018-11-29T13:17:24.223Z,10.60
2018-11-29T13:19:52.377Z,10.60
2018-11-29T13:22:20.495Z,10.60
2018-11-29T13:24:48.645Z,10.60
2018-11-29T13:27:16.777Z,10.60
2018-11-29T13:29:44.974Z,10.70
2018-11-29T13:32:13.096Z,10.60
2018-11-29T13:34:41.232Z,10.70
2018-11-29T13:37:09.392Z,10.60
2018-11-29T13:39:37.526Z,10.60
2018-11-29T13:42:06.180Z,10.60
2018-11-29T13:44:34.317Z,10.50
2018-11-29T13:47:02.448Z,10.50
2018-11-29T13:49:30.603Z,10.50
2018-11-29T13:51:58.749Z,10.50
2018-11-29T13:54:26.857Z,10.40
2018-11-29T13:56:54.973Z,10.40
2018-11-29T13:59:23.112Z,10.40
2018-11-29T14:01:51.236Z,10.40
2018-11-29T14:04:19.365Z,10.40
2018-11-29T14:06:47.484Z,10.50
2018-11-29T14:09:15.610Z,10.50
2018-11-29T14:11:43.736Z,10.50
2018-11-29T14:14:11.855Z,10.60
2018-11-29T14:16:39.981Z,10.60
2018-11-29T14:19:08.120Z,10.60
2018-11-29T14:21:36.237Z,10.50
2018-11-29T14:24:04.500Z,10.50
2018-11-29T14:26:32.616Z,10.50
2018-11-29T14:29:00.735Z,10.60
2018-11-29T14:31:28.866Z,10.50
2018-11-29T14:33:56.988Z,10.50
2018-11-29T14:36:25.103Z,10.50
2018-11-29T14:38:53.229Z,10.50
2018-11-29T14:41:21.414Z,10.50
2018-11-29T14:43:49.523Z,10.50
2018-11-29T14:46:17.653Z,10.50
2018-11-29T14:48:45.799Z,10.60
2018-11-29T14:51:13.945Z,10.60
2018-11-29T14:53:42.076Z,10.60
2018-11-29T14:56:10.251Z,10.60
2018-11-29T14:58:38.402Z,10.60
2018-11-29T15:01:06.572Z,10.60
2018-11-29T15:03:34.708Z,10.60
2018-11-29T15:06:02.848Z,10.70
2018-11-29T15:08:30.980Z,10.70
2018-11-29T15:10:59.140Z,10.80
2018-11-29T15:13:27.304Z,10.80
2018-11-29T15:15:55.429Z,10.80
2018-11-29T15:18:23.574Z,10.90
2018-11-29T15:20:51.745Z,10.80
2018-11-29T15:23:20.489Z,10.80
2018-11-29T15:25:48.616Z,10.80
2018-11-29T15:28:16.784Z,10.90
2018-11-29T15:30:44.916Z,10.90
2018-11-29T15:33:13.056Z,10.90
2018-11-29T15:35:41.294Z,10.90
2018-11-29T15:38:09.371Z,10.90
2018-11-29T15:40:37.504Z,10.90
2018-11-29T15:43:05.655Z,10.90
2018-11-29T15:45:33.959Z,10.90
2018-11-29T15:48:02.076Z,11.00
2018-11-29T15:50:30.196Z,11.00
2018-11-29T15:52:58.325Z,11.00
2018-11-29T15:55:26.464Z,11.00
2018-11-29T15:57:54.717Z,11.00
2018-11-29T16:00:25.984Z,11.00
2018-11-29T16:02:55.241Z,11.10
2018-11-29T16:05:23.349Z,11.10
2018-11-29T16:07:51.480Z,11.00
2018-11-29T16:10:20.944Z,11.00
2018-11-29T16:12:49.107Z,10.90
2018-11-29T16:15:18.158Z,10.90
2018-11-29T16:17:46.909Z,10.90
2018-11-29T16:20:22.033Z,10.90
2018-11-29T16:22:50.296Z,10.90
2018-11-29T16:25:18.449Z,10.80
2018-11-29T16:27:46.568Z,10.80
2018-11-29T16:30:50.784Z,10.80
2018-11-29T16:33:21.531Z,10.70
2018-11-29T16:35:49.667Z,10.60
2018-11-29T16:38:17.809Z,10.60
2018-11-29T16:40:45.926Z,10.60
2018-11-29T16:43:14.060Z,10.60
2018-11-29T16:45:42.226Z,10.60
2018-11-29T16:48:10.390Z,10.60
2018-11-29T16:50:38.752Z,10.60
2018-11-29T16:53:07.490Z,10.60
2018-11-29T16:55:35.942Z,10.60
2018-11-29T16:58:07.020Z,10.60
2018-11-29T17:00:35.309Z,10.60
2018-11-29T17:03:03.444Z,10.60
2018-11-29T17:05:31.633Z,10.60
2018-11-29T17:07:59.880Z,10.60
2018-11-29T17:10:28.052Z,10.60
2018-11-29T17:12:57.896Z,10.60
2018-11-29T17:15:26.048Z,10.70
2018-11-29T17:17:54.188Z,10.70
2018-11-29T17:20:22.324Z,10.70
2018-11-29T17:22:51.224Z,10.70
2018-11-29T17:25:19.380Z,10.60
2018-11-29T17:27:47.528Z,10.60
2018-11-29T17:30:18.764Z,10.60
2018-11-29T17:32:47.312Z,10.60
2018-11-29T17:35:15.441Z,10.60
2018-11-29T17:37:43.599Z,10.60
2018-11-29T17:40:12.900Z,10.60
2018-11-29T17:42:41.089Z,10.60
2018-11-29T17:45:10.646Z,10.60
2018-11-29T17:47:38.788Z,10.60
2018-11-29T17:50:12.740Z,10.60
2018-11-29T17:52:40.888Z,10.60
2018-11-29T17:55:09.068Z,10.60
2018-11-29T17:57:37.207Z,10.60
2018-11-29T18:00:11.104Z,10.60
2018-11-29T18:02:39.236Z,10.60
2018-11-29T18:05:07.588Z,10.60
2018-11-29T18:07:35.719Z,10.60
2018-11-29T18:10:04.200Z,10.60
2018-11-29T18:12:32.356Z,10.60
2018-11-29T18:15:00.532Z,10.60
2018-11-29T18:17:28.665Z,10.60
2018-11-29T18:19:56.811Z,10.50
2018-11-29T18:22:24.938Z,10.50
2018-11-29T18:24:53.081Z,10.40
2018-11-29T18:27:21.265Z,10.30
2018-11-29T18:29:49.377Z,10.40
2018-11-29T18:32:17.534Z,10.40
2018-11-29T18:34:45.649Z,10.30
2018-11-29T18:37:13.794Z,10.20
2018-11-29T18:39:41.964Z,10.20
2018-11-29T18:42:10.108Z,10.20
2018-11-29T18:44:38.281Z,10.10
2018-11-29T18:47:06.509Z,10.20
2018-11-29T18:49:34.628Z,10.20
2018-11-29T18:52:02.757Z,10.20
2018-11-29T18:54:30.864Z,10.20
2018-11-29T18:56:59.043Z,10.20
2018-11-29T18:59:27.184Z,10.20
2018-11-29T19:01:55.356Z,10.30
2018-11-29T19:04:23.476Z,10.20
2018-11-29T19:06:51.604Z,10.30
2018-11-29T19:09:19.736Z,10.20
2018-11-29T19:11:47.881Z,10.30
2018-11-29T19:14:16.081Z,10.40
2018-11-29T19:16:44.208Z,10.30
2018-11-29T19:19:12.533Z,10.40
2018-11-29T19:21:40.560Z,10.40
2018-11-29T19:24:08.712Z,10.30
2018-11-29T19:26:36.833Z,10.30
2018-11-29T19:29:05.676Z,10.30
2018-11-29T19:31:33.801Z,10.30
2018-11-29T19:34:02.044Z,10.30
2018-11-29T19:36:30.136Z,10.30
2018-11-29T19:38:58.305Z,10.40
2018-11-29T19:41:26.549Z,10.40
2018-11-29T19:43:54.669Z,10.40
2018-11-29T19:46:22.788Z,10.30
2018-11-29T19:48:50.935Z,10.30
2018-11-29T19:51:19.060Z,10.30
2018-11-29T19:53:47.204Z,10.30
2018-11-29T19:56:15.336Z,10.30
2018-11-29T19:58:43.486Z,10.40
2018-11-29T20:01:11.600Z,10.40
2018-11-29T20:03:39.728Z,10.50
2018-11-29T20:06:07.843Z,10.40
2018-11-29T20:08:35.968Z,10.50
2018-11-29T20:11:04.283Z,10.50
2018-11-29T20:13:32.407Z,10.60
2018-11-29T20:16:00.537Z,10.60
2018-11-29T20:18:28.705Z,10.60
2018-11-29T20:20:56.815Z,10.60
2018-11-29T20:23:25.017Z,10.60
2018-11-29T20:25:53.336Z,10.50
2018-11-29T20:28:21.513Z,10.60
2018-11-29T20:30:49.630Z,10.60
2018-11-29T20:33:17.755Z,10.50
2018-11-29T20:35:45.900Z,10.60
2018-11-29T20:38:14.016Z,10.50
2018-11-29T20:40:43.552Z,10.60
2018-11-29T20:43:11.679Z,10.60
2018-11-29T20:45:42.052Z,10.60
2018-11-29T20:48:18.327Z,10.60
2018-11-29T20:50:46.813Z,10.60
2018-11-29T20:53:16.927Z,10.60
2018-11-29T20:55:45.186Z,10.60
2018-11-29T20:58:13.321Z,10.60
2018-11-29T21:00:41.502Z,10.50
2018-11-29T21:03:09.648Z,10.60
2018-11-29T21:05:39.590Z,10.60
2018-11-29T21:08:08.849Z,10.50
2018-11-29T21:10:37.118Z,10.60
2018-11-29T21:13:05.477Z,10.60
2018-11-29T21:15:34.836Z,10.50
2018-11-29T21:18:02.956Z,10.50
2018-11-29T21:20:31.080Z,10.50
2018-11-29T21:22:59.752Z,10.50
2018-11-29T21:25:27.924Z,10.50
2018-11-29T21:27:56.071Z,10.50
2018-11-29T21:30:24.248Z,10.50
2018-11-29T21:32:52.356Z,10.50
2018-11-29T21:35:21.675Z,10.60
2018-11-29T21:37:50.769Z,10.60
2018-11-29T21:40:23.143Z,10.70
2018-11-29T21:42:51.252Z,10.60
2018-11-29T21:45:19.492Z,10.60
2018-11-29T21:47:47.604Z,10.60
2018-11-29T21:50:15.733Z,10.60
2018-11-29T21:52:43.880Z,10.60
2018-11-29T21:55:12.003Z,10.60
2018-11-29T21:57:40.135Z,10.60
2018-11-29T22:00:12.387Z,10.70
2018-11-29T22:02:43.136Z,10.70
2018-11-29T22:05:11.261Z,10.70
2018-11-29T22:07:39.376Z,10.70
2018-11-29T22:10:07.532Z,10.70
2018-11-29T22:12:35.647Z,10.70
2018-11-29T22:15:04.488Z,10.70
2018-11-29T22:17:32.613Z,10.70
2018-11-29T22:20:00.832Z,10.70
2018-11-29T22:22:29.008Z,10.70
2018-11-29T22:24:57.132Z,10.60
2018-11-29T22:27:25.292Z,10.60
2018-11-29T22:29:53.432Z,10.70
2018-11-29T22:32:21.561Z,10.70
2018-11-29T22:34:49.684Z,10.70
2018-11-29T22:37:17.832Z,10.70
2018-11-29T22:39:45.988Z,10.70
2018-11-29T22:42:14.112Z,10.70
2018-11-29T22:44:42.237Z,10.70
2018-11-29T22:47:10.480Z,10.70
2018-11-29T22:49:38.607Z,10.70
2018-11-29T22:52:06.756Z,10.70
2018-11-29T22:54:34.897Z,10.70
2018-11-29T22:57:03.033Z,10.60
2018-11-29T22:59:31.181Z,10.70
2018-11-29T23:01:59.304Z,10.60
2018-11-29T23:04:27.436Z,10.60
2018-11-29T23:06:55.720Z,10.70
2018-11-29T23:09:23.884Z,10.60
2018-11-29T23:11:52.027Z,10.60
2018-11-29T23:14:20.152Z,10.70
2018-11-29T23:16:48.300Z,10.70
2018-11-29T23:19:16.427Z,10.70
2018-11-29T23:21:44.568Z,10.70
2018-11-29T23:24:12.698Z,10.70
2018-11-29T23:26:40.839Z,10.70
2018-11-29T23:29:08.972Z,10.70
2018-11-29T23:31:37.108Z,10.70
2018-11-29T23:34:05.869Z,10.70
2018-11-29T23:36:34.009Z,10.70
2018-11-29T23:39:02.136Z,10.70
2018-11-29T23:41:30.275Z,10.70
2018-11-29T23:43:58.409Z,10.70
2018-11-29T23:46:26.544Z,10.70
2018-11-29T23:48:54.681Z,10.70
2018-11-29T23:51:22.816Z,10.70
2018-11-29T23:53:50.938Z,10.60
2018-11-29T23:56:19.080Z,10.70
2018-11-29T23:58:47.225Z,10.70
